createdAt,value
2019-04-14T00:02:33.637Z,37.00
2019-04-14T00:06:00.386Z,26.90
2019-04-14T00:09:25.176Z,28.47
2019-04-14T00:12:51.280Z,28.67
2019-04-14T00:16:16.288Z,28.07
2019-04-14T00:19:41.312Z,23.90
2019-04-14T00:23:06.495Z,22.70
2019-04-14T00:26:31.863Z,23.43
2019-04-14T00:29:56.733Z,26.40
2019-04-14T00:33:23.512Z,23.17
2019-04-14T00:36:52.300Z,27.13
2019-04-14T00:40:17.814Z,25.30
2019-04-14T00:43:46.080Z,35.30
2019-04-14T00:47:14.241Z,26.87
2019-04-14T00:50:38.788Z,23.83
2019-04-14T00:54:02.652Z,27.27
2019-04-14T00:57:26.867Z,31.37
2019-04-14T01:00:51.766Z,23.53
2019-04-14T01:04:16.523Z,26.27
2019-04-14T01:07:41.304Z,22.80
2019-04-14T01:11:05.296Z,32.10
2019-04-14T01:14:29.856Z,23.23
2019-04-14T01:17:54.904Z,23.40
2019-04-14T01:21:19.648Z,26.30
2019-04-14T01:24:44.602Z,26.73
2019-04-14T01:28:08.971Z,25.47
2019-04-14T01:31:33.747Z,22.60
2019-04-14T01:34:58.814Z,20.37
2019-04-14T01:38:23.337Z,24.37
2019-04-14T01:41:47.864Z,22.87
2019-04-14T01:45:14.202Z,25.13
2019-04-14T01:48:38.904Z,24.10
2019-04-14T01:52:10.892Z,24.03
2019-04-14T01:55:48.519Z,22.57
2019-04-14T01:59:15.013Z,20.20
2019-04-14T02:02:40.008Z,20.23
2019-04-14T02:06:04.810Z,28.87
2019-04-14T02:09:29.507Z,21.37
2019-04-14T02:12:54.220Z,20.47
2019-04-14T02:16:25.945Z,19.47
2019-04-14T02:19:43.943Z,21.70
2019-04-14T02:23:08.281Z,21.93
2019-04-14T02:26:32.964Z,20.90
2019-04-14T02:29:58.119Z,22.33
2019-04-14T02:33:54.023Z,19.57
2019-04-14T02:37:26.641Z,21.33
2019-04-14T02:40:47.365Z,21.07
2019-04-14T02:44:15.919Z,21.33
2019-04-14T02:50:59.623Z,22.03
2019-04-14T02:54:24.630Z,23.87
2019-04-14T02:57:45.062Z,22.03
2019-04-14T03:01:19.646Z,22.17
2019-04-14T03:04:37.120Z,18.40
2019-04-14T03:08:02.199Z,21.13
2019-04-14T03:14:53.540Z,20.10
2019-04-14T03:18:38.132Z,19.17
2019-04-14T03:25:51.310Z,19.07
2019-04-14T03:29:21.348Z,18.97
2019-04-14T03:36:43.949Z,18.90
2019-04-14T03:39:42.679Z,18.17
2019-04-14T03:49:52.476Z,19.70
2019-04-14T03:53:23.305Z,16.97
2019-04-14T03:56:49.026Z,17.30
2019-04-14T04:00:13.857Z,16.67
2019-04-14T04:03:37.755Z,20.67
2019-04-14T04:07:01.880Z,17.30
2019-04-14T04:10:27.036Z,17.73
2019-04-14T04:13:51.964Z,18.67
2019-04-14T04:17:27.491Z,14.27
2019-04-14T04:20:53.080Z,14.57
2019-04-14T04:24:35.205Z,20.57
2019-04-14T04:28:17.067Z,13.80
2019-04-14T04:31:58.938Z,18.57
2019-04-14T04:35:28.203Z,17.90
2019-04-14T04:38:57.382Z,16.83
2019-04-14T04:42:21.951Z,16.50
2019-04-14T04:45:45.890Z,17.47
2019-04-14T04:49:16.491Z,15.63
2019-04-14T04:52:35.172Z,19.70
2019-04-14T04:55:59.286Z,19.60
2019-04-14T04:59:23.560Z,18.10
2019-04-14T05:02:48.392Z,18.47
2019-04-14T05:06:37.987Z,18.33
2019-04-14T05:10:06.671Z,21.50
2019-04-14T05:13:33.467Z,22.00
2019-04-14T05:16:57.280Z,16.70
2019-04-14T05:20:22.389Z,17.63
2019-04-14T05:23:47.352Z,15.80
2019-04-14T05:27:12.355Z,60.67
2019-04-14T05:30:37.112Z,17.67
2019-04-14T05:34:02.168Z,20.13
2019-04-14T05:37:26.868Z,19.53
2019-04-14T05:40:51.837Z,19.07
2019-04-14T05:44:16.450Z,15.27
2019-04-14T05:47:41.382Z,16.17
2019-04-14T05:51:06.438Z,15.20
2019-04-14T05:54:31.690Z,15.50
2019-04-14T05:57:56.698Z,14.97
2019-04-14T06:01:20.802Z,15.63
2019-04-14T06:04:44.500Z,14.53
2019-04-14T06:08:08.507Z,16.40
2019-04-14T06:11:32.351Z,15.20
2019-04-14T06:14:56.194Z,15.30
2019-04-14T06:18:20.057Z,17.17
2019-04-14T06:21:43.750Z,15.57
2019-04-14T06:25:07.825Z,15.00
2019-04-14T06:28:31.572Z,17.17
2019-04-14T06:32:05.987Z,17.53
2019-04-14T06:35:34.274Z,15.63
2019-04-14T06:39:17.835Z,15.13
2019-04-14T06:42:41.626Z,14.97
2019-04-14T06:46:05.531Z,17.43
2019-04-14T06:49:29.240Z,15.23
2019-04-14T06:52:53.043Z,16.37
2019-04-14T06:56:16.878Z,22.20
2019-04-14T06:59:40.662Z,18.50
2019-04-14T07:03:04.477Z,17.25
2019-04-14T07:06:28.237Z,15.40
2019-04-14T07:09:52.612Z,20.07
2019-04-14T07:13:19.373Z,16.97
2019-04-14T07:16:41.967Z,18.40
2019-04-14T07:20:07.260Z,15.78
2019-04-14T07:23:31.355Z,18.40
2019-04-14T07:26:55.341Z,16.50
2019-04-14T07:30:20.845Z,18.50
2019-04-14T07:41:00.535Z,14.70
2019-04-14T07:44:28.977Z,20.97
2019-04-14T07:47:57.006Z,14.03
2019-04-14T07:51:25.209Z,17.60
2019-04-14T07:54:53.785Z,15.77
2019-04-14T07:58:22.268Z,16.80
2019-04-14T08:01:47.929Z,14.60
2019-04-14T08:05:16.511Z,16.50
2019-04-14T08:08:40.388Z,13.63
2019-04-14T08:12:04.552Z,19.53
2019-04-14T08:15:28.434Z,13.37
2019-04-14T08:18:53.062Z,16.47
2019-04-14T08:22:19.288Z,14.83
2019-04-14T08:25:43.481Z,15.40
2019-04-14T08:29:07.447Z,14.13
2019-04-14T08:32:31.445Z,19.13
2019-04-14T08:35:55.329Z,14.30
2019-04-14T08:39:19.512Z,15.07
2019-04-14T08:42:51.008Z,15.17
2019-04-14T08:46:29.808Z,16.00
2019-04-14T08:49:58.325Z,16.60
2019-04-14T08:53:26.650Z,12.87
2019-04-14T08:56:52.126Z,11.10
2019-04-14T09:00:27.345Z,12.80
2019-04-14T09:03:56.439Z,13.27
2019-04-14T09:07:21.947Z,13.30
2019-04-14T09:10:50.275Z,14.57
2019-04-14T09:14:14.462Z,13.03
2019-04-14T09:17:38.320Z,14.97
2019-04-14T09:21:02.268Z,12.57
2019-04-14T09:24:26.693Z,11.23
2019-04-14T09:27:50.782Z,13.90
2019-04-14T09:31:14.674Z,12.50
2019-04-14T09:34:38.851Z,13.40
2019-04-14T09:38:02.835Z,14.30
2019-04-14T09:41:27.226Z,9.93
2019-04-14T09:44:51.312Z,16.47
2019-04-14T09:48:15.202Z,14.87
2019-04-14T09:51:39.052Z,12.60
2019-04-14T09:55:03.179Z,12.30
2019-04-14T09:58:27.447Z,11.87
2019-04-14T10:01:52.012Z,12.13
2019-04-14T10:05:15.846Z,14.93
2019-04-14T10:08:39.744Z,13.37
2019-04-14T10:12:04.822Z,12.53
2019-04-14T10:15:28.665Z,17.27
2019-04-14T10:18:52.467Z,14.03
2019-04-14T10:22:16.285Z,14.97
2019-04-14T10:25:39.972Z,14.13
2019-04-14T10:29:04.062Z,12.03
2019-04-14T10:32:27.865Z,13.87
2019-04-14T10:35:51.793Z,13.13
2019-04-14T10:39:16.804Z,10.97
2019-04-14T10:42:42.380Z,13.60
2019-04-14T10:46:06.298Z,11.70
2019-04-14T10:49:30.344Z,11.90
2019-04-14T10:52:54.812Z,10.97
2019-04-14T10:56:18.766Z,10.30
2019-04-14T10:59:42.546Z,12.87
2019-04-14T11:03:06.367Z,10.53
2019-04-14T11:06:46.870Z,10.53
2019-04-14T11:10:12.020Z,12.63
2019-04-14T11:13:35.853Z,12.37
2019-04-14T11:16:59.819Z,10.93
2019-04-14T11:20:23.800Z,10.70
2019-04-14T11:23:47.944Z,10.73
2019-04-14T11:27:12.637Z,9.43
2019-04-14T11:30:36.459Z,8.97
2019-04-14T11:34:01.598Z,12.27
2019-04-14T11:37:43.416Z,12.30
2019-04-14T11:41:15.224Z,8.40
2019-04-14T11:44:39.157Z,9.47
2019-04-14T11:48:03.108Z,10.60
2019-04-14T11:51:27.132Z,12.30
2019-04-14T11:54:51.009Z,8.80
2019-04-14T11:58:14.900Z,8.60
2019-04-14T12:01:43.241Z,7.97
2019-04-14T12:05:08.736Z,6.40
2019-04-14T12:08:36.792Z,7.57
2019-04-14T12:12:00.653Z,7.50
2019-04-14T12:15:24.485Z,6.73
2019-04-14T12:18:48.442Z,6.83
2019-04-14T12:22:12.928Z,6.33
2019-04-14T12:25:36.760Z,8.93
2019-04-14T12:29:03.040Z,7.57
2019-04-14T12:32:26.964Z,6.70
2019-04-14T12:35:50.854Z,6.13
2019-04-14T12:39:23.894Z,8.53
2019-04-14T12:42:49.336Z,6.43
2019-04-14T12:46:31.433Z,5.73
2019-04-14T12:49:56.918Z,6.27
2019-04-14T12:53:21.115Z,6.43
2019-04-14T12:56:47.097Z,5.70
2019-04-14T13:00:12.523Z,7.33
2019-04-14T13:03:42.293Z,7.33
2019-04-14T13:07:06.452Z,7.47
2019-04-14T13:10:30.515Z,14.73
2019-04-14T13:13:54.707Z,7.07
2019-04-14T13:17:18.942Z,7.67
2019-04-14T13:20:42.673Z,9.00
2019-04-14T13:24:06.819Z,8.33
2019-04-14T13:27:30.682Z,6.97
2019-04-14T13:30:54.498Z,6.47
2019-04-14T13:34:19.217Z,6.67
2019-04-14T13:37:43.720Z,10.27
2019-04-14T13:41:07.797Z,6.93
2019-04-14T13:44:31.993Z,7.53
2019-04-14T13:47:57.164Z,14.37
2019-04-14T13:51:21.343Z,18.23
2019-04-14T13:54:45.166Z,7.37
2019-04-14T13:58:09.069Z,14.10
2019-04-14T14:01:32.993Z,10.43
2019-04-14T14:04:56.788Z,6.13
2019-04-14T14:08:20.575Z,8.57
2019-04-14T14:11:52.073Z,7.30
2019-04-14T14:15:34.160Z,7.60
2019-04-14T14:19:05.674Z,9.13
2019-04-14T14:22:31.063Z,12.37
2019-04-14T14:25:56.473Z,11.63
2019-04-14T14:29:20.249Z,20.67
2019-04-14T14:32:44.163Z,20.23
2019-04-14T14:36:08.349Z,8.00
2019-04-14T14:39:32.193Z,12.77
2019-04-14T14:42:56.513Z,8.27
2019-04-14T14:46:36.758Z,9.93
2019-04-14T14:50:06.872Z,13.03
2019-04-14T14:53:31.164Z,15.00
2019-04-14T14:56:55.055Z,11.17
2019-04-14T15:00:29.666Z,7.97
2019-04-14T15:03:53.618Z,10.73
2019-04-14T15:07:17.693Z,10.27
2019-04-14T15:10:42.249Z,9.67
2019-04-14T15:14:10.114Z,10.73
2019-04-14T15:17:34.007Z,10.67
2019-04-14T15:20:57.825Z,11.80
2019-04-14T15:24:22.230Z,8.83
2019-04-14T15:27:46.219Z,11.63
2019-04-14T15:31:09.993Z,8.70
2019-04-14T15:34:33.770Z,8.10
2019-04-14T15:37:57.845Z,8.77
2019-04-14T15:41:21.863Z,12.53
2019-04-14T15:44:46.060Z,9.50
2019-04-14T15:48:09.922Z,10.27
2019-04-14T15:51:33.855Z,15.60
2019-04-14T15:54:57.715Z,19.23
2019-04-14T15:58:23.268Z,20.90
2019-04-14T16:01:52.099Z,17.77
2019-04-14T16:05:26.843Z,10.30
2019-04-14T16:08:52.521Z,12.27
2019-04-14T16:12:20.799Z,17.03
2019-04-14T16:16:02.977Z,9.47
2019-04-14T16:19:34.950Z,12.40
2019-04-14T16:22:58.835Z,10.50
2019-04-14T16:26:36.220Z,17.17
2019-04-14T16:30:17.734Z,11.07
2019-04-14T16:33:59.339Z,17.53
2019-04-14T16:37:23.239Z,21.67
2019-04-14T16:40:48.596Z,20.03
2019-04-14T16:44:12.406Z,21.97
2019-04-14T16:47:39.300Z,25.97
2019-04-14T16:51:04.291Z,30.93
2019-04-14T16:54:39.197Z,27.47
2019-04-14T16:58:07.817Z,32.37
2019-04-14T17:01:39.488Z,24.93
2019-04-14T17:05:03.457Z,23.00
2019-04-14T17:08:27.210Z,26.80
2019-04-14T17:11:51.446Z,21.20
2019-04-14T17:15:25.822Z,20.93
2019-04-14T17:18:54.042Z,20.40
2019-04-14T17:22:22.051Z,43.67
2019-04-14T17:25:47.788Z,24.67
2019-04-14T17:29:25.139Z,28.60
2019-04-14T17:33:09.401Z,66.37
2019-04-14T17:36:51.038Z,28.00
2019-04-14T17:40:18.154Z,110.57
2019-04-14T17:43:49.273Z,159.57
2019-04-14T17:47:21.696Z,90.43
2019-04-14T17:50:59.357Z,217.20
2019-04-14T17:54:41.646Z,215.33
2019-04-14T17:58:10.501Z,286.30
2019-04-14T18:01:52.740Z,314.23
2019-04-14T18:05:27.745Z,199.83
2019-04-14T18:08:53.157Z,73.80
2019-04-14T18:12:34.561Z,65.67
2019-04-14T18:16:00.207Z,62.30
2019-04-14T18:19:28.265Z,51.20
2019-04-14T18:22:52.113Z,43.33
2019-04-14T18:26:16.202Z,29.83
2019-04-14T18:29:56.497Z,63.10
2019-04-14T18:33:25.055Z,70.57
2019-04-14T18:37:02.361Z,65.23
2019-04-14T18:40:27.867Z,38.37
2019-04-14T18:43:55.726Z,40.07
2019-04-14T18:47:37.337Z,35.27
2019-04-14T18:51:02.892Z,51.70
2019-04-14T18:54:54.095Z,59.77
2019-04-14T18:58:19.427Z,42.10
2019-04-14T19:01:50.755Z,39.27
2019-04-14T19:05:14.873Z,39.23
2019-04-14T19:08:38.818Z,37.50
2019-04-14T19:12:20.149Z,53.90
2019-04-14T19:15:48.541Z,40.27
2019-04-14T19:19:12.698Z,37.50
2019-04-14T19:22:38.363Z,37.67
2019-04-14T19:26:02.225Z,56.90
2019-04-14T19:29:27.748Z,49.00
2019-04-14T19:32:51.811Z,76.27
2019-04-14T19:36:16.026Z,41.50
2019-04-14T19:39:39.892Z,64.83
2019-04-14T19:43:04.100Z,37.00
2019-04-14T19:46:27.927Z,34.80
2019-04-14T19:49:51.713Z,33.43
2019-04-14T19:53:15.470Z,55.57
2019-04-14T19:56:39.332Z,37.27
2019-04-14T20:00:03.800Z,34.63
2019-04-14T20:03:27.647Z,31.60
2019-04-14T20:06:51.648Z,32.07
2019-04-14T20:10:15.698Z,30.83
2019-04-14T20:13:41.068Z,29.23
2019-04-14T20:17:22.257Z,31.30
2019-04-14T20:21:04.362Z,32.23
2019-04-14T20:24:38.675Z,29.77
2019-04-14T20:28:20.312Z,33.53
2019-04-14T20:31:45.766Z,25.13
2019-04-14T20:35:09.672Z,24.00
2019-04-14T20:38:36.007Z,32.20
2019-04-14T20:41:59.899Z,34.50
2019-04-14T20:45:23.670Z,30.77
2019-04-14T20:48:47.519Z,31.60
2019-04-14T20:52:11.355Z,26.70
2019-04-14T20:55:46.161Z,37.67
2019-04-14T20:59:01.367Z,30.63
2019-04-14T21:02:29.826Z,31.50
2019-04-14T21:06:13.022Z,23.20
2019-04-14T21:09:40.952Z,25.90
2019-04-14T21:13:09.090Z,25.00
2019-04-14T21:16:34.505Z,29.87
2019-04-14T21:20:15.997Z,27.53
2019-04-14T21:23:53.194Z,31.30
2019-04-14T21:27:21.786Z,28.77
2019-04-14T21:30:47.444Z,28.53
2019-04-14T21:34:15.408Z,29.43
2019-04-14T21:37:43.740Z,28.87
2019-04-14T21:41:15.307Z,28.03
2019-04-14T21:44:39.176Z,31.27
2019-04-14T21:48:04.558Z,35.80
2019-04-14T21:51:45.845Z,25.60
2019-04-14T21:55:10.208Z,23.47
2019-04-14T21:58:51.734Z,33.87
2019-04-14T22:02:33.178Z,28.10
2019-04-14T22:06:01.684Z,38.03
2019-04-14T22:09:30.596Z,32.87
2019-04-14T22:12:54.393Z,27.87
2019-04-14T22:16:18.173Z,30.07
2019-04-14T22:19:42.260Z,27.90
2019-04-14T22:23:07.967Z,30.53
2019-04-14T22:26:31.830Z,30.50
2019-04-14T22:29:55.666Z,27.40
2019-04-14T22:33:20.035Z,28.40
2019-04-14T22:36:43.786Z,25.27
2019-04-14T22:40:07.689Z,27.97
2019-04-14T22:43:31.571Z,29.50
2019-04-14T22:46:55.521Z,25.43
2019-04-14T22:50:19.440Z,28.77
2019-04-14T22:53:43.178Z,47.97
2019-04-14T22:57:07.060Z,28.63
2019-04-14T23:00:49.037Z,43.43
2019-04-14T23:04:17.216Z,24.63
2019-04-14T23:07:42.525Z,19.17
2019-04-14T23:11:08.017Z,23.50
2019-04-14T23:14:36.367Z,23.00
2019-04-14T23:18:01.886Z,39.83
2019-04-14T23:21:30.154Z,27.60
2019-04-14T23:24:53.952Z,24.53
2019-04-14T23:28:18.045Z,27.43
2019-04-14T23:31:41.945Z,21.07
2019-04-14T23:35:08.710Z,21.53
2019-04-14T23:38:32.681Z,18.30
2019-04-14T23:41:56.564Z,17.37
2019-04-14T23:45:20.401Z,17.53
2019-04-14T23:48:44.322Z,16.20
2019-04-14T23:52:08.203Z,21.83
2019-04-14T23:55:32.085Z,16.77
2019-04-14T23:58:56.122Z,18.13
